sensor_id;sensor_type;location;lat;lon;timestamp;temperature;humidity
3156;DHT22;1588;50.892;7.082;2024-03-08T00:00:58;3.20;99.90
3156;DHT22;1588;50.892;7.082;2024-03-08T00:06:27;2.90;99.90
3156;DHT22;1588;50.892;7.082;2024-03-08T00:11:52;2.80;99.90
3156;DHT22;1588;50.892;7.082;2024-03-08T00:16:55;2.70;99.90
3156;DHT22;1588;50.892;7.082;2024-03-08T00:22:00;2.60;99.90
3156;DHT22;1588;50.892;7.082;2024-03-08T00:27:10;2.40;99.90
3156;DHT22;1588;50.892;7.082;2024-03-08T00:32:22;2.30;99.90
3156;DHT22;1588;50.892;7.082;2024-03-08T00:37:31;2.30;99.90
3156;DHT22;1588;50.892;7.082;2024-03-08T00:42:39;2.40;99.90
3156;DHT22;1588;50.892;7.082;2024-03-08T00:47:52;2.40;99.90
3156;DHT22;1588;50.892;7.082;2024-03-08T00:53:01;2.40;99.90
3156;DHT22;1588;50.892;7.082;2024-03-08T00:58:06;2.50;99.90
3156;DHT22;1588;50.892;7.082;2024-03-08T01:03:12;2.50;99.90
3156;DHT22;1588;50.892;7.082;2024-03-08T01:08:20;2.80;99.90
3156;DHT22;1588;50.892;7.082;2024-03-08T01:13:25;3.00;99.90
3156;DHT22;1588;50.892;7.082;2024-03-08T01:18:39;2.90;99.90
3156;DHT22;1588;50.892;7.082;2024-03-08T01:23:45;2.90;99.90
3156;DHT22;1588;50.892;7.082;2024-03-08T01:28:50;2.70;99.90
3156;DHT22;1588;50.892;7.082;2024-03-08T01:33:58;2.70;99.90
3156;DHT22;1588;50.892;7.082;2024-03-08T01:39:07;2.80;99.90
3156;DHT22;1588;50.892;7.082;2024-03-08T01:44:22;2.80;99.90
3156;DHT22;1588;50.892;7.082;2024-03-08T01:49:33;2.80;99.90
3156;DHT22;1588;50.892;7.082;2024-03-08T01:54:47;2.60;99.90
3156;DHT22;1588;50.892;7.082;2024-03-08T02:00:09;2.60;99.90
3156;DHT22;1588;50.892;7.082;2024-03-08T02:05:19;2.60;99.90
3156;DHT22;1588;50.892;7.082;2024-03-08T02:10:29;2.70;99.90
3156;DHT22;1588;50.892;7.082;2024-03-08T02:16:00;2.70;99.90
3156;DHT22;1588;50.892;7.082;2024-03-08T02:21:06;2.60;99.90
3156;DHT22;1588;50.892;7.082;2024-03-08T02:26:11;2.50;99.90
3156;DHT22;1588;50.892;7.082;2024-03-08T02:31:20;2.50;99.90
3156;DHT22;1588;50.892;7.082;2024-03-08T02:36:28;2.50;99.90
3156;DHT22;1588;50.892;7.082;2024-03-08T02:41:36;2.50;99.90
3156;DHT22;1588;50.892;7.082;2024-03-08T02:46:40;2.30;99.90
3156;DHT22;1588;50.892;7.082;2024-03-08T02:51:44;2.30;99.90
3156;DHT22;1588;50.892;7.082;2024-03-08T02:56:48;2.30;99.90
3156;DHT22;1588;50.892;7.082;2024-03-08T03:01:58;2.40;99.90
3156;DHT22;1588;50.892;7.082;2024-03-08T03:07:10;2.50;99.90
3156;DHT22;1588;50.892;7.082;2024-03-08T03:12:19;2.40;99.90
3156;DHT22;1588;50.892;7.082;2024-03-08T03:17:27;2.40;99.90
3156;DHT22;1588;50.892;7.082;2024-03-08T03:22:41;2.40;99.90
3156;DHT22;1588;50.892;7.082;2024-03-08T03:27:49;2.50;99.90
3156;DHT22;1588;50.892;7.082;2024-03-08T03:33:11;2.50;99.90
3156;DHT22;1588;50.892;7.082;2024-03-08T03:38:22;2.30;99.90
3156;DHT22;1588;50.892;7.082;2024-03-08T03:43:33;2.20;99.90
3156;DHT22;1588;50.892;7.082;2024-03-08T03:48:42;2.30;99.90
3156;DHT22;1588;50.892;7.082;2024-03-08T03:53:47;2.50;99.90
3156;DHT22;1588;50.892;7.082;2024-03-08T03:58:57;2.50;99.90
3156;DHT22;1588;50.892;7.082;2024-03-08T04:04:01;2.40;99.90
3156;DHT22;1588;50.892;7.082;2024-03-08T04:09:12;2.40;99.90
3156;DHT22;1588;50.892;7.082;2024-03-08T04:14:18;2.40;99.90
3156;DHT22;1588;50.892;7.082;2024-03-08T04:19:24;2.30;99.90
3156;DHT22;1588;50.892;7.082;2024-03-08T04:24:36;2.20;99.90
3156;DHT22;1588;50.892;7.082;2024-03-08T04:29:43;2.10;99.90
3156;DHT22;1588;50.892;7.082;2024-03-08T04:34:46;2.10;99.90
3156;DHT22;1588;50.892;7.082;2024-03-08T04:39:58;2.10;99.90
3156;DHT22;1588;50.892;7.082;2024-03-08T04:45:08;2.40;99.90
3156;DHT22;1588;50.892;7.082;2024-03-08T04:50:20;2.30;99.90
3156;DHT22;1588;50.892;7.082;2024-03-08T04:55:39;2.10;99.90
3156;DHT22;1588;50.892;7.082;2024-03-08T05:00:46;2.20;99.90
3156;DHT22;1588;50.892;7.082;2024-03-08T05:05:52;2.30;99.90
3156;DHT22;1588;50.892;7.082;2024-03-08T05:11:00;2.20;99.90
3156;DHT22;1588;50.892;7.082;2024-03-08T05:16:15;2.20;99.90
3156;DHT22;1588;50.892;7.082;2024-03-08T05:21:19;2.20;99.90
3156;DHT22;1588;50.892;7.082;2024-03-08T05:26:25;2.10;99.90
3156;DHT22;1588;50.892;7.082;2024-03-08T05:31:28;2.10;99.90
3156;DHT22;1588;50.892;7.082;2024-03-08T05:36:31;2.10;99.90
3156;DHT22;1588;50.892;7.082;2024-03-08T05:41:35;1.90;99.90
3156;DHT22;1588;50.892;7.082;2024-03-08T05:46:37;1.90;99.90
3156;DHT22;1588;50.892;7.082;2024-03-08T05:51:40;2.00;99.90
3156;DHT22;1588;50.892;7.082;2024-03-08T05:56:46;2.10;99.90
3156;DHT22;1588;50.892;7.082;2024-03-08T06:01:51;2.10;99.90
3156;DHT22;1588;50.892;7.082;2024-03-08T06:06:58;2.10;99.90
3156;DHT22;1588;50.892;7.082;2024-03-08T06:12:01;2.10;99.90
3156;DHT22;1588;50.892;7.082;2024-03-08T06:17:05;2.20;99.90
3156;DHT22;1588;50.892;7.082;2024-03-08T06:22:08;2.10;99.90
3156;DHT22;1588;50.892;7.082;2024-03-08T06:27:12;2.20;99.90
3156;DHT22;1588;50.892;7.082;2024-03-08T06:32:15;2.40;99.90
3156;DHT22;1588;50.892;7.082;2024-03-08T06:37:20;2.30;99.90
3156;DHT22;1588;50.892;7.082;2024-03-08T06:42:26;2.40;99.90
3156;DHT22;1588;50.892;7.082;2024-03-08T06:47:28;2.50;99.90
3156;DHT22;1588;50.892;7.082;2024-03-08T06:52:31;2.50;99.90
3156;DHT22;1588;50.892;7.082;2024-03-08T06:57:35;2.70;99.90
3156;DHT22;1588;50.892;7.082;2024-03-08T07:02:40;2.80;99.90
3156;DHT22;1588;50.892;7.082;2024-03-08T07:07:43;3.10;99.90
3156;DHT22;1588;50.892;7.082;2024-03-08T07:12:47;3.20;99.90
3156;DHT22;1588;50.892;7.082;2024-03-08T07:17:49;3.30;99.90
3156;DHT22;1588;50.892;7.082;2024-03-08T07:22:53;3.40;99.90
3156;DHT22;1588;50.892;7.082;2024-03-08T07:27:57;3.60;99.90
3156;DHT22;1588;50.892;7.082;2024-03-08T07:33:00;3.80;99.90
3156;DHT22;1588;50.892;7.082;2024-03-08T07:38:04;4.10;99.90
3156;DHT22;1588;50.892;7.082;2024-03-08T07:43:08;4.30;99.90
3156;DHT22;1588;50.892;7.082;2024-03-08T07:48:11;4.80;99.90
3156;DHT22;1588;50.892;7.082;2024-03-08T07:53:13;8.10;99.90
3156;DHT22;1588;50.892;7.082;2024-03-08T07:58:20;10.60;99.90
3156;DHT22;1588;50.892;7.082;2024-03-08T08:03:24;11.60;99.90
3156;DHT22;1588;50.892;7.082;2024-03-08T08:08:27;11.40;99.90
3156;DHT22;1588;50.892;7.082;2024-03-08T08:13:30;12.30;99.90
3156;DHT22;1588;50.892;7.082;2024-03-08T08:18:33;13.10;99.90
3156;DHT22;1588;50.892;7.082;2024-03-08T08:23:37;13.10;99.90
3156;DHT22;1588;50.892;7.082;2024-03-08T08:28:41;13.70;99.90
3156;DHT22;1588;50.892;7.082;2024-03-08T08:33:44;13.60;99.90
3156;DHT22;1588;50.892;7.082;2024-03-08T08:38:49;13.10;99.90
3156;DHT22;1588;50.892;7.082;2024-03-08T08:43:52;14.30;99.90
3156;DHT22;1588;50.892;7.082;2024-03-08T08:48:55;13.90;99.90
3156;DHT22;1588;50.892;7.082;2024-03-08T08:54:01;15.60;99.90
3156;DHT22;1588;50.892;7.082;2024-03-08T08:59:07;15.40;99.90
3156;DHT22;1588;50.892;7.082;2024-03-08T09:04:10;14.30;99.90
3156;DHT22;1588;50.892;7.082;2024-03-08T09:09:16;14.10;99.90
3156;DHT22;1588;50.892;7.082;2024-03-08T09:14:25;15.30;99.90
3156;DHT22;1588;50.892;7.082;2024-03-08T09:19:37;16.30;99.90
3156;DHT22;1588;50.892;7.082;2024-03-08T09:24:40;14.70;99.90
3156;DHT22;1588;50.892;7.082;2024-03-08T09:29:45;15.80;99.90
3156;DHT22;1588;50.892;7.082;2024-03-08T09:34:48;14.90;99.90
3156;DHT22;1588;50.892;7.082;2024-03-08T09:39:51;16.20;99.90
3156;DHT22;1588;50.892;7.082;2024-03-08T09:44:55;15.10;99.80
3156;DHT22;1588;50.892;7.082;2024-03-08T09:49:57;15.50;99.90
3156;DHT22;1588;50.892;7.082;2024-03-08T09:54:59;17.40;98.90
3156;DHT22;1588;50.892;7.082;2024-03-08T10:00:05;15.90;98.60
3156;DHT22;1588;50.892;7.082;2024-03-08T10:05:19;16.50;98.30
3156;DHT22;1588;50.892;7.082;2024-03-08T10:10:23;15.80;98.90
3156;DHT22;1588;50.892;7.082;2024-03-08T10:15:28;16.10;97.80
3156;DHT22;1588;50.892;7.082;2024-03-08T10:20:32;16.40;96.90
3156;DHT22;1588;50.892;7.082;2024-03-08T10:25:35;15.90;98.50
3156;DHT22;1588;50.892;7.082;2024-03-08T10:30:39;15.70;98.90
3156;DHT22;1588;50.892;7.082;2024-03-08T10:35:49;16.80;97.20
3156;DHT22;1588;50.892;7.082;2024-03-08T10:40:51;15.10;96.90
3156;DHT22;1588;50.892;7.082;2024-03-08T10:46:06;15.00;97.90
3156;DHT22;1588;50.892;7.082;2024-03-08T10:51:14;14.30;98.60
3156;DHT22;1588;50.892;7.082;2024-03-08T10:56:17;15.30;98.60
3156;DHT22;1588;50.892;7.082;2024-03-08T11:01:21;15.10;97.30
3156;DHT22;1588;50.892;7.082;2024-03-08T11:06:30;14.00;99.30
3156;DHT22;1588;50.892;7.082;2024-03-08T11:11:33;13.40;99.80
3156;DHT22;1588;50.892;7.082;2024-03-08T11:16:39;12.70;99.90
3156;DHT22;1588;50.892;7.082;2024-03-08T11:22:06;12.60;99.90
3156;DHT22;1588;50.892;7.082;2024-03-08T11:27:09;12.60;99.90
3156;DHT22;1588;50.892;7.082;2024-03-08T11:32:15;13.60;99.90
3156;DHT22;1588;50.892;7.082;2024-03-08T11:37:20;13.50;98.90
3156;DHT22;1588;50.892;7.082;2024-03-08T11:42:24;13.50;99.90
3156;DHT22;1588;50.892;7.082;2024-03-08T11:47:30;13.40;99.10
3156;DHT22;1588;50.892;7.082;2024-03-08T11:52:32;13.50;99.40
3156;DHT22;1588;50.892;7.082;2024-03-08T11:57:36;13.40;98.20
3156;DHT22;1588;50.892;7.082;2024-03-08T12:02:44;13.30;99.50
3156;DHT22;1588;50.892;7.082;2024-03-08T12:07:56;13.30;99.90
3156;DHT22;1588;50.892;7.082;2024-03-08T12:13:01;12.60;99.40
3156;DHT22;1588;50.892;7.082;2024-03-08T12:18:06;12.20;99.90
3156;DHT22;1588;50.892;7.082;2024-03-08T12:23:14;12.20;99.90
3156;DHT22;1588;50.892;7.082;2024-03-08T12:28:19;11.80;99.80
3156;DHT22;1588;50.892;7.082;2024-03-08T12:33:24;11.90;99.90
3156;DHT22;1588;50.892;7.082;2024-03-08T12:38:28;11.90;99.90
3156;DHT22;1588;50.892;7.082;2024-03-08T12:43:32;11.80;99.90
3156;DHT22;1588;50.892;7.082;2024-03-08T12:48:36;12.00;99.90
3156;DHT22;1588;50.892;7.082;2024-03-08T12:53:41;12.10;99.90
3156;DHT22;1588;50.892;7.082;2024-03-08T12:58:45;12.20;99.90
3156;DHT22;1588;50.892;7.082;2024-03-08T13:03:49;12.30;99.90
3156;DHT22;1588;50.892;7.082;2024-03-08T13:08:55;12.10;99.90
3156;DHT22;1588;50.892;7.082;2024-03-08T13:13:57;12.00;99.90
3156;DHT22;1588;50.892;7.082;2024-03-08T13:19:02;12.00;99.90
3156;DHT22;1588;50.892;7.082;2024-03-08T13:24:06;12.00;99.90
3156;DHT22;1588;50.892;7.082;2024-03-08T13:29:09;11.80;99.90
3156;DHT22;1588;50.892;7.082;2024-03-08T13:34:14;11.80;99.90
3156;DHT22;1588;50.892;7.082;2024-03-08T13:39:17;11.90;99.90
3156;DHT22;1588;50.892;7.082;2024-03-08T13:44:22;11.60;99.90
3156;DHT22;1588;50.892;7.082;2024-03-08T13:49:28;11.60;99.90
3156;DHT22;1588;50.892;7.082;2024-03-08T13:54:30;11.60;99.90
3156;DHT22;1588;50.892;7.082;2024-03-08T13:59:32;11.50;99.90
3156;DHT22;1588;50.892;7.082;2024-03-08T14:04:37;11.70;99.90
3156;DHT22;1588;50.892;7.082;2024-03-08T14:09:41;11.70;99.90
3156;DHT22;1588;50.892;7.082;2024-03-08T14:14:44;11.80;99.90
3156;DHT22;1588;50.892;7.082;2024-03-08T14:19:48;11.80;99.90
3156;DHT22;1588;50.892;7.082;2024-03-08T14:24:51;11.70;99.90
3156;DHT22;1588;50.892;7.082;2024-03-08T14:29:54;11.70;99.90
3156;DHT22;1588;50.892;7.082;2024-03-08T14:35:16;11.80;99.90
3156;DHT22;1588;50.892;7.082;2024-03-08T14:40:39;11.80;99.90
3156;DHT22;1588;50.892;7.082;2024-03-08T14:45:43;11.90;99.90
3156;DHT22;1588;50.892;7.082;2024-03-08T14:50:50;11.90;99.90
3156;DHT22;1588;50.892;7.082;2024-03-08T14:55:53;11.90;99.90
3156;DHT22;1588;50.892;7.082;2024-03-08T15:00:56;11.80;99.90
3156;DHT22;1588;50.892;7.082;2024-03-08T15:06:04;11.90;99.90
3156;DHT22;1588;50.892;7.082;2024-03-08T15:11:09;11.90;99.90
3156;DHT22;1588;50.892;7.082;2024-03-08T15:16:11;11.80;99.90
3156;DHT22;1588;50.892;7.082;2024-03-08T15:21:19;11.80;99.90
3156;DHT22;1588;50.892;7.082;2024-03-08T15:26:27;11.80;99.90
3156;DHT22;1588;50.892;7.082;2024-03-08T15:31:31;11.90;99.90
3156;DHT22;1588;50.892;7.082;2024-03-08T15:36:35;11.70;99.90
3156;DHT22;1588;50.892;7.082;2024-03-08T15:41:37;11.70;99.90
3156;DHT22;1588;50.892;7.082;2024-03-08T15:46:40;11.70;99.90
3156;DHT22;1588;50.892;7.082;2024-03-08T15:51:46;11.60;99.90
3156;DHT22;1588;50.892;7.082;2024-03-08T15:56:50;11.50;99.90
3156;DHT22;1588;50.892;7.082;2024-03-08T16:01:53;11.50;99.90
3156;DHT22;1588;50.892;7.082;2024-03-08T16:06:56;11.30;99.90
3156;DHT22;1588;50.892;7.082;2024-03-08T16:11:59;11.20;99.90
3156;DHT22;1588;50.892;7.082;2024-03-08T16:17:01;11.20;99.90
3156;DHT22;1588;50.892;7.082;2024-03-08T16:22:05;11.10;99.90
3156;DHT22;1588;50.892;7.082;2024-03-08T16:27:08;10.90;99.90
3156;DHT22;1588;50.892;7.082;2024-03-08T16:32:11;10.90;99.90
3156;DHT22;1588;50.892;7.082;2024-03-08T16:37:14;10.80;99.90
3156;DHT22;1588;50.892;7.082;2024-03-08T16:42:17;10.70;99.90
3156;DHT22;1588;50.892;7.082;2024-03-08T16:47:22;10.70;99.90
3156;DHT22;1588;50.892;7.082;2024-03-08T16:52:32;10.60;99.90
3156;DHT22;1588;50.892;7.082;2024-03-08T16:57:38;10.50;99.90
3156;DHT22;1588;50.892;7.082;2024-03-08T17:02:50;10.40;99.90
3156;DHT22;1588;50.892;7.082;2024-03-08T17:07:56;10.40;99.90
3156;DHT22;1588;50.892;7.082;2024-03-08T17:13:00;10.30;99.90
3156;DHT22;1588;50.892;7.082;2024-03-08T17:18:06;10.20;99.90
3156;DHT22;1588;50.892;7.082;2024-03-08T17:23:11;10.10;99.90
3156;DHT22;1588;50.892;7.082;2024-03-08T17:28:16;10.00;99.90
3156;DHT22;1588;50.892;7.082;2024-03-08T17:33:22;9.90;99.90
3156;DHT22;1588;50.892;7.082;2024-03-08T17:38:30;9.70;99.90
3156;DHT22;1588;50.892;7.082;2024-03-08T17:43:38;9.60;99.90
3156;DHT22;1588;50.892;7.082;2024-03-08T17:48:43;9.40;99.90
3156;DHT22;1588;50.892;7.082;2024-03-08T17:53:48;9.30;99.90
3156;DHT22;1588;50.892;7.082;2024-03-08T17:58:55;9.00;99.90
3156;DHT22;1588;50.892;7.082;2024-03-08T18:04:06;9.10;99.90
3156;DHT22;1588;50.892;7.082;2024-03-08T18:09:21;8.90;99.90
3156;DHT22;1588;50.892;7.082;2024-03-08T18:14:27;8.70;99.90
3156;DHT22;1588;50.892;7.082;2024-03-08T18:19:30;8.70;99.90
3156;DHT22;1588;50.892;7.082;2024-03-08T18:24:35;8.50;99.90
3156;DHT22;1588;50.892;7.082;2024-03-08T18:29:37;8.30;99.90
3156;DHT22;1588;50.892;7.082;2024-03-08T18:34:40;8.30;99.90
3156;DHT22;1588;50.892;7.082;2024-03-08T18:39:46;8.10;99.90
3156;DHT22;1588;50.892;7.082;2024-03-08T18:44:52;7.80;99.90
3156;DHT22;1588;50.892;7.082;2024-03-08T18:49:55;7.60;99.90
3156;DHT22;1588;50.892;7.082;2024-03-08T18:55:01;7.60;99.90
3156;DHT22;1588;50.892;7.082;2024-03-08T19:00:11;7.40;99.90
3156;DHT22;1588;50.892;7.082;2024-03-08T19:05:25;7.50;99.90
3156;DHT22;1588;50.892;7.082;2024-03-08T19:10:29;7.40;99.90
3156;DHT22;1588;50.892;7.082;2024-03-08T19:15:33;7.10;99.90
3156;DHT22;1588;50.892;7.082;2024-03-08T19:20:36;7.00;99.90
3156;DHT22;1588;50.892;7.082;2024-03-08T19:25:40;7.10;99.90
3156;DHT22;1588;50.892;7.082;2024-03-08T19:30:43;6.90;99.90
3156;DHT22;1588;50.892;7.082;2024-03-08T19:35:45;6.60;99.90
3156;DHT22;1588;50.892;7.082;2024-03-08T19:40:50;6.50;99.90
3156;DHT22;1588;50.892;7.082;2024-03-08T19:45:54;6.30;99.90
3156;DHT22;1588;50.892;7.082;2024-03-08T19:50:59;6.00;99.90
3156;DHT22;1588;50.892;7.082;2024-03-08T19:56:07;5.80;99.90
3156;DHT22;1588;50.892;7.082;2024-03-08T20:01:09;5.70;99.90
3156;DHT22;1588;50.892;7.082;2024-03-08T20:06:16;5.90;99.90
3156;DHT22;1588;50.892;7.082;2024-03-08T20:11:20;6.00;99.90
3156;DHT22;1588;50.892;7.082;2024-03-08T20:16:22;5.80;99.90
3156;DHT22;1588;50.892;7.082;2024-03-08T20:21:25;5.50;99.90
3156;DHT22;1588;50.892;7.082;2024-03-08T20:26:28;5.50;99.90
3156;DHT22;1588;50.892;7.082;2024-03-08T20:31:30;5.80;99.90
3156;DHT22;1588;50.892;7.082;2024-03-08T20:36:33;5.90;99.90
3156;DHT22;1588;50.892;7.082;2024-03-08T20:41:37;6.00;99.90
3156;DHT22;1588;50.892;7.082;2024-03-08T20:46:41;6.00;99.90
3156;DHT22;1588;50.892;7.082;2024-03-08T20:51:43;6.30;99.90
3156;DHT22;1588;50.892;7.082;2024-03-08T20:56:47;6.30;99.90
3156;DHT22;1588;50.892;7.082;2024-03-08T21:01:55;6.40;99.90
3156;DHT22;1588;50.892;7.082;2024-03-08T21:06:57;6.50;99.90
3156;DHT22;1588;50.892;7.082;2024-03-08T21:12:35;6.60;99.90
3156;DHT22;1588;50.892;7.082;2024-03-08T21:18:00;6.50;99.90
3156;DHT22;1588;50.892;7.082;2024-03-08T21:23:07;6.40;99.90
3156;DHT22;1588;50.892;7.082;2024-03-08T21:28:13;6.40;99.90
3156;DHT22;1588;50.892;7.082;2024-03-08T21:33:19;6.40;99.90
3156;DHT22;1588;50.892;7.082;2024-03-08T21:38:22;6.30;99.90
3156;DHT22;1588;50.892;7.082;2024-03-08T21:43:30;5.90;99.90
3156;DHT22;1588;50.892;7.082;2024-03-08T21:48:35;5.60;99.90
3156;DHT22;1588;50.892;7.082;2024-03-08T21:53:38;5.20;99.90
3156;DHT22;1588;50.892;7.082;2024-03-08T21:58:43;5.00;99.90
3156;DHT22;1588;50.892;7.082;2024-03-08T22:03:46;4.70;99.90
3156;DHT22;1588;50.892;7.082;2024-03-08T22:08:50;4.60;99.90
3156;DHT22;1588;50.892;7.082;2024-03-08T22:13:56;4.40;99.90
3156;DHT22;1588;50.892;7.082;2024-03-08T22:18:59;4.20;99.90
3156;DHT22;1588;50.892;7.082;2024-03-08T22:24:01;4.00;99.90
3156;DHT22;1588;50.892;7.082;2024-03-08T22:29:08;4.00;99.90
3156;DHT22;1588;50.892;7.082;2024-03-08T22:34:11;4.00;99.90
3156;DHT22;1588;50.892;7.082;2024-03-08T22:39:13;4.00;99.90
3156;DHT22;1588;50.892;7.082;2024-03-08T22:44:21;4.20;99.90
3156;DHT22;1588;50.892;7.082;2024-03-08T22:49:25;4.40;99.90
3156;DHT22;1588;50.892;7.082;2024-03-08T22:54:29;4.40;99.90
3156;DHT22;1588;50.892;7.082;2024-03-08T22:59:34;4.70;99.90
3156;DHT22;1588;50.892;7.082;2024-03-08T23:04:37;5.00;99.90
3156;DHT22;1588;50.892;7.082;2024-03-08T23:09:40;5.20;99.90
3156;DHT22;1588;50.892;7.082;2024-03-08T23:14:45;5.20;99.90
3156;DHT22;1588;50.892;7.082;2024-03-08T23:19:47;4.90;99.90
3156;DHT22;1588;50.892;7.082;2024-03-08T23:24:56;4.80;99.90
3156;DHT22;1588;50.892;7.082;2024-03-08T23:30:00;4.60;99.90
3156;DHT22;1588;50.892;7.082;2024-03-08T23:35:03;4.40;99.90
3156;DHT22;1588;50.892;7.082;2024-03-08T23:40:08;4.50;99.90
3156;DHT22;1588;50.892;7.082;2024-03-08T23:45:20;4.40;99.90
3156;DHT22;1588;50.892;7.082;2024-03-08T23:50:31;4.20;99.90
3156;DHT22;1588;50.892;7.082;2024-03-08T23:55:36;4.00;99.90
